Afyon Airport Afyonkarahisar TR
ICAO: LTAH
IATA: AFY
Category: Medium
Scheduled Services: No

Elevation: 3310 ft
TransAlt. 12000 ft.

Airport Communications:
APP:122.1
TWR:122.1

LTAH Zoom In..

If you have problems with the map follow the link
https://www.worldairports.se/pages/airport.php?
ICAO=LTAH

Runways:

(A) RW 13L length 12008 ft width 148 ft
---- / hdg 130

(B) RW 13R length 9843 ft width 148 ft
---- / hdg 130

(C) RW 31L length 9843 ft width 148 ft
---- / hdg 310

(D) RW 31R length 12008 ft width 148 ft
---- / hdg 310

Location; LTAH
Day. 13 / Time. 13.50 Zulu
* QNH: 1021
* Temperature: 02° c. 35.6°f.
* Wind from: 160° Speed 05 kn.
Dewpoint: -07° c.
Visibility: 10 km or more.
Clouds: Scattered 4000 ft.
Clouds: Broken 1000 ft.

LTAH 131350Z 16005KT 9999 SCT040 BKN100 02/M07 Q1021 RMK RWY13 14006KT


Wind From 160°
Speed 05 kn.

 
 
jpsmedia.com for Web Design worldairports.se 2018   terms of use